Zinc, Arkansas
Current Conditions -  °F | °C
As of 7:53 AM on Monday 22 Dec 2014 (Local Time) from KHRO Reporting Station
Overcast Overcast  
Wind Chill: 42°   Ceiling: 900
Heat Index: 46°   Visibility: 9mi
Dew Point: 45°   Wind: 8mph
Humidity: 96%   Direction: 150°SSE
Pressure: 29.65"   Gusts: NA
Location:  36.2615°N, 93.1062°W
Report Text: KHRO 221353Z AUTO 15007KT 9SM OVC009 08/07 A2965 RMK AO2 RAB05E19 SLP042 P0000 T00780072 $
Loading
Personal Weather Stations






























Interactive Weather Map New forecast layout! Learn more

10-Day Weather Forecast

Advertisements
Track Severe Weather on mobile